Terminal Aerodrome Forecast
Issued by NWS

Home | Current Version | Previous Version | Graphics & Text | Print | Product List | Glossary Off
Versions: 1 2 3 4 5 6 7 8 9 10 11 12 13 14 15

000
FTUS45 KGGW 171720
TAFSDY
TAF
KSDY 171720Z 1718/1818 32008KT P6SM FEW210
     FM172000 32012KT P6SM SCT200
     FM172200 32012KT P6SM BKN110
     FM180300 33008KT P6SM FEW130
     FM181000 29004KT P6SM FEW140=

USA.gov is the U.S. government's official web portal to all federal, state and local government web resources and services.